createdAt,value
2022-11-01T00:01:53.748Z,12.25
2022-11-01T00:04:20.685Z,12.26
2022-11-01T00:06:48.414Z,12.29
2022-11-01T00:09:15.082Z,12.26
2022-11-01T00:11:41.936Z,12.24
2022-11-01T00:14:12.195Z,12.24
2022-11-01T00:16:38.799Z,12.22
2022-11-01T00:19:05.350Z,12.19
2022-11-01T00:21:31.923Z,12.15
2022-11-01T00:23:58.469Z,12.15
2022-11-01T00:26:25.121Z,12.16
2022-11-01T00:28:52.220Z,12.16
2022-11-01T00:31:19.881Z,12.16
2022-11-01T00:33:46.757Z,12.19
2022-11-01T00:36:14.357Z,12.17
2022-11-01T00:38:41.282Z,12.17
2022-11-01T00:41:08.017Z,12.18
2022-11-01T00:43:36.136Z,12.19
2022-11-01T00:46:04.191Z,12.22
2022-11-01T00:48:30.882Z,12.24
2022-11-01T00:50:57.751Z,12.24
2022-11-01T00:53:24.309Z,12.26
2022-11-01T00:55:50.890Z,12.19
2022-11-01T00:58:17.547Z,12.23
2022-11-01T01:00:44.185Z,12.26
2022-11-01T01:03:10.857Z,12.27
2022-11-01T01:05:37.690Z,12.26
2022-11-01T01:08:04.402Z,12.30
2022-11-01T01:10:30.973Z,12.28
2022-11-01T01:12:57.772Z,12.24
2022-11-01T01:15:24.413Z,12.19
2022-11-01T01:17:51.028Z,12.25
2022-11-01T01:20:17.621Z,12.21
2022-11-01T01:22:44.159Z,12.22
2022-11-01T01:25:10.907Z,12.19
2022-11-01T01:27:38.077Z,12.19
2022-11-01T01:30:06.032Z,12.24
2022-11-01T01:32:32.609Z,12.28
2022-11-01T01:34:59.276Z,12.32
2022-11-01T01:37:25.856Z,12.37
2022-11-01T01:39:52.618Z,12.32
2022-11-01T01:42:34.695Z,12.28
2022-11-01T01:45:25.817Z,12.23
2022-11-01T01:47:54.448Z,12.24
2022-11-01T01:50:26.851Z,12.14
2022-11-01T01:53:08.229Z,12.10
2022-11-01T01:55:48.610Z,12.10
2022-11-01T01:58:18.081Z,12.07
2022-11-01T02:00:45.014Z,12.05
2022-11-01T02:03:12.885Z,12.06
2022-11-01T02:05:58.065Z,12.11
2022-11-01T02:08:28.009Z,12.11
2022-11-01T02:11:01.272Z,12.24
2022-11-01T02:13:29.049Z,12.27
2022-11-01T02:16:17.289Z,12.37
2022-11-01T02:18:48.304Z,12.39
2022-11-01T02:21:33.555Z,12.46
2022-11-01T02:24:17.962Z,12.57
2022-11-01T02:26:44.494Z,12.53
2022-11-01T02:29:20.330Z,12.50
2022-11-01T02:32:14.510Z,12.52
2022-11-01T02:34:49.884Z,12.69
2022-11-01T02:37:32.678Z,12.74
2022-11-01T02:40:05.828Z,12.64
2022-11-01T02:42:37.405Z,12.67
2022-11-01T02:45:35.597Z,12.66
2022-11-01T02:48:03.666Z,12.70
2022-11-01T02:50:37.159Z,12.71
2022-11-01T02:53:05.059Z,12.81
2022-11-01T02:55:31.902Z,12.90
2022-11-01T02:58:23.441Z,12.91
2022-11-01T03:00:50.548Z,13.09
2022-11-01T03:03:22.604Z,13.06
2022-11-01T03:06:02.834Z,13.10
2022-11-01T03:08:35.556Z,13.19
2022-11-01T03:11:07.525Z,13.19
2022-11-01T03:13:43.853Z,13.26
2022-11-01T03:16:26.944Z,13.23
2022-11-01T03:19:06.603Z,13.12
2022-11-01T03:21:41.284Z,13.24
2022-11-01T03:24:18.344Z,13.28
2022-11-01T03:26:48.273Z,13.50
2022-11-01T03:29:19.035Z,13.52
2022-11-01T03:31:46.557Z,13.44
2022-11-01T03:34:16.536Z,13.44
2022-11-01T03:36:51.008Z,13.39
2022-11-01T03:39:48.767Z,13.52
2022-11-01T03:42:19.331Z,13.50
2022-11-01T03:44:50.321Z,13.48
2022-11-01T03:47:17.136Z,13.49
2022-11-01T03:49:43.692Z,13.43
2022-11-01T03:52:10.363Z,13.37
2022-11-01T03:54:36.935Z,13.38
2022-11-01T03:57:03.627Z,13.50
2022-11-01T03:59:30.269Z,13.54
2022-11-01T04:01:57.123Z,13.47
2022-11-01T04:04:23.792Z,13.56
2022-11-01T04:06:51.324Z,13.65
2022-11-01T04:09:17.917Z,13.67
2022-11-01T04:11:44.482Z,13.76
2022-11-01T04:14:31.342Z,13.78
2022-11-01T04:17:16.313Z,13.90
2022-11-01T04:20:01.492Z,14.01
2022-11-01T04:22:28.099Z,14.00
2022-11-01T04:24:54.645Z,13.93
2022-11-01T04:27:21.203Z,13.88
2022-11-01T04:29:47.739Z,13.95
2022-11-01T04:32:14.303Z,14.07
2022-11-01T04:34:43.745Z,14.01
2022-11-01T04:37:14.236Z,13.98
2022-11-01T04:39:40.932Z,14.00
2022-11-01T04:42:07.505Z,13.92
2022-11-01T04:44:34.081Z,13.85
2022-11-01T04:47:00.674Z,13.89
2022-11-01T04:49:27.231Z,14.10
2022-11-01T04:51:53.755Z,14.27
2022-11-01T04:54:20.391Z,14.32
2022-11-01T04:56:47.025Z,14.29
2022-11-01T04:59:13.582Z,14.33
2022-11-01T05:01:40.215Z,14.32
2022-11-01T05:04:06.869Z,14.24
2022-11-01T05:06:33.448Z,14.25
2022-11-01T05:09:00.008Z,14.21
2022-11-01T05:11:26.602Z,14.21
2022-11-01T05:13:53.203Z,14.24
2022-11-01T05:16:20.968Z,14.32
2022-11-01T05:18:48.421Z,14.39
2022-11-01T05:21:15.070Z,14.35
2022-11-01T05:23:41.641Z,14.31
2022-11-01T05:26:08.210Z,14.27
2022-11-01T05:28:34.905Z,14.22
2022-11-01T05:31:01.657Z,14.28
2022-11-01T05:33:28.258Z,14.36
2022-11-01T05:35:54.853Z,14.33
2022-11-01T05:38:21.420Z,14.33
2022-11-01T05:40:48.270Z,14.31
2022-11-01T05:43:15.391Z,14.23
2022-11-01T05:45:42.103Z,14.23
2022-11-01T05:48:09.344Z,14.22
2022-11-01T05:50:35.950Z,14.16
2022-11-01T05:53:07.005Z,14.13
2022-11-01T05:55:34.441Z,14.13
2022-11-01T05:58:01.256Z,14.06
2022-11-01T06:00:27.909Z,14.05
2022-11-01T06:02:57.672Z,14.00
2022-11-01T06:05:24.537Z,13.95
2022-11-01T06:07:51.099Z,14.00
2022-11-01T06:10:17.859Z,13.99
2022-11-01T06:12:44.483Z,14.01
2022-11-01T06:15:11.651Z,13.91
2022-11-01T06:17:38.239Z,13.86
2022-11-01T06:20:05.845Z,13.80
2022-11-01T06:22:35.785Z,13.88
2022-11-01T06:25:02.389Z,13.82
2022-11-01T06:27:29.159Z,13.84
2022-11-01T06:29:55.698Z,13.87
2022-11-01T06:32:22.335Z,13.86
2022-11-01T06:34:48.943Z,13.96
2022-11-01T06:37:15.794Z,13.89
2022-11-01T06:39:42.442Z,13.89
2022-11-01T06:42:09.827Z,13.94
2022-11-01T06:44:36.401Z,13.98
2022-11-01T06:47:03.055Z,14.03
2022-11-01T06:49:30.563Z,14.03
2022-11-01T06:51:57.548Z,14.05
2022-11-01T06:54:24.312Z,14.13
2022-11-01T06:56:50.869Z,14.15
2022-11-01T06:59:17.420Z,14.27
2022-11-01T07:01:44.511Z,14.34
2022-11-01T07:06:57.753Z,14.33
2022-11-01T07:09:24.389Z,14.37
2022-11-01T07:11:50.940Z,14.35
2022-11-01T07:14:17.575Z,14.37
2022-11-01T07:16:44.250Z,14.39
2022-11-01T07:19:10.912Z,14.34
2022-11-01T07:21:37.782Z,14.28
2022-11-01T07:24:04.727Z,14.33
2022-11-01T07:26:31.393Z,14.32
2022-11-01T07:28:57.983Z,14.33
2022-11-01T07:31:25.519Z,14.37
2022-11-01T07:33:52.116Z,14.38
2022-11-01T07:36:18.903Z,14.38
2022-11-01T07:38:45.558Z,14.38
2022-11-01T07:41:12.296Z,14.43
2022-11-01T07:43:38.825Z,14.44
2022-11-01T07:46:07.229Z,14.42
2022-11-01T07:48:36.851Z,14.41
2022-11-01T07:51:05.841Z,14.51
2022-11-01T07:53:32.505Z,14.52
2022-11-01T07:56:01.551Z,14.69
2022-11-01T07:58:28.235Z,14.94
2022-11-01T08:00:54.907Z,15.02
2022-11-01T08:03:21.560Z,14.98
2022-11-01T08:05:48.685Z,15.01
2022-11-01T08:08:16.616Z,14.95
2022-11-01T08:10:43.384Z,15.08
2022-11-01T08:13:23.698Z,15.15
2022-11-01T08:15:52.226Z,15.15
2022-11-01T08:18:22.454Z,15.17
2022-11-01T08:20:49.321Z,15.24
2022-11-01T08:23:15.965Z,15.32
2022-11-01T08:25:42.667Z,15.39
2022-11-01T08:28:12.972Z,15.46
2022-11-01T08:30:41.970Z,15.48
2022-11-01T08:33:08.994Z,15.44
2022-11-01T08:35:35.598Z,15.42
2022-11-01T08:38:05.412Z,15.44
2022-11-01T08:40:33.209Z,15.45
2022-11-01T08:43:00.083Z,15.57
2022-11-01T08:45:27.422Z,15.55
2022-11-01T08:47:59.410Z,15.58
2022-11-01T08:50:27.327Z,15.61
2022-11-01T08:52:53.903Z,15.56
2022-11-01T08:55:21.584Z,15.49
2022-11-01T08:57:48.510Z,15.60
2022-11-01T09:00:16.809Z,15.64
2022-11-01T09:02:43.609Z,15.62
2022-11-01T09:05:10.350Z,15.60
2022-11-01T09:07:37.933Z,15.58
2022-11-01T09:10:05.368Z,15.72
2022-11-01T09:12:32.328Z,15.79
2022-11-01T09:14:59.245Z,15.74
2022-11-01T09:17:25.833Z,15.84
2022-11-01T09:19:52.506Z,15.91
2022-11-01T09:22:19.090Z,16.12
2022-11-01T09:24:45.788Z,15.91
2022-11-01T09:27:12.442Z,16.05
2022-11-01T09:29:39.149Z,16.42
2022-11-01T09:32:06.872Z,16.76
2022-11-01T09:34:34.050Z,17.08
2022-11-01T09:37:01.027Z,17.11
2022-11-01T09:39:27.684Z,17.17
2022-11-01T09:42:02.454Z,17.55
2022-11-01T09:44:34.519Z,17.13
2022-11-01T09:47:05.611Z,17.32
2022-11-01T09:49:36.636Z,17.63
2022-11-01T09:52:05.380Z,17.64
2022-11-01T09:54:33.010Z,17.36
2022-11-01T09:57:28.087Z,17.91
2022-11-01T10:00:20.190Z,17.52
2022-11-01T10:02:56.768Z,17.41
2022-11-01T10:05:44.246Z,17.61
2022-11-01T10:08:38.219Z,17.48
2022-11-01T10:11:16.982Z,17.80
2022-11-01T10:14:07.943Z,18.34
2022-11-01T10:16:37.315Z,17.87
2022-11-01T10:19:14.755Z,17.92
2022-11-01T10:21:54.455Z,17.89
2022-11-01T10:24:29.900Z,17.75
2022-11-01T10:27:05.751Z,18.22
2022-11-01T10:29:41.636Z,17.94
2022-11-01T10:32:20.992Z,18.03
2022-11-01T10:34:47.791Z,17.74
2022-11-01T10:37:23.641Z,17.65
2022-11-01T10:39:59.136Z,17.93
2022-11-01T10:42:30.027Z,18.20
2022-11-01T10:45:04.636Z,17.90
2022-11-01T10:47:31.249Z,17.71
2022-11-01T10:50:09.092Z,17.76
2022-11-01T10:52:47.780Z,17.98
2022-11-01T10:55:20.192Z,17.74
2022-11-01T10:58:10.596Z,18.01
2022-11-01T11:00:40.679Z,17.91
2022-11-01T11:03:29.008Z,18.07
2022-11-01T11:05:59.401Z,17.95
2022-11-01T11:08:26.640Z,17.47
2022-11-01T11:11:03.174Z,17.61
2022-11-01T11:13:31.133Z,18.00
2022-11-01T11:16:06.543Z,17.68
2022-11-01T11:18:42.161Z,17.85
2022-11-01T11:21:11.876Z,17.92
2022-11-01T11:23:43.673Z,17.78
2022-11-01T11:26:13.586Z,18.20
2022-11-01T11:28:46.178Z,18.43
2022-11-01T11:31:34.293Z,18.19
2022-11-01T11:34:26.101Z,17.77
2022-11-01T11:36:55.057Z,18.21
2022-11-01T11:39:27.511Z,18.55
2022-11-01T11:41:54.396Z,17.86
2022-11-01T11:44:55.456Z,18.41
2022-11-01T11:47:28.334Z,18.50
2022-11-01T11:49:58.122Z,18.06
2022-11-01T11:52:37.801Z,18.02
2022-11-01T11:55:05.946Z,17.79
2022-11-01T11:57:33.466Z,18.31
2022-11-01T12:00:05.670Z,18.04
2022-11-01T12:02:40.905Z,17.96
2022-11-01T12:05:15.073Z,18.23
2022-11-01T12:07:52.922Z,17.89
2022-11-01T12:10:38.220Z,18.03
2022-11-01T12:13:21.191Z,18.05
2022-11-01T12:15:48.014Z,18.21
2022-11-01T12:18:19.254Z,18.33
2022-11-01T12:20:51.324Z,18.08
2022-11-01T12:23:37.811Z,18.00
2022-11-01T12:26:12.541Z,17.71
2022-11-01T12:28:47.412Z,17.45
2022-11-01T12:31:19.465Z,17.91
2022-11-01T12:33:52.447Z,17.87
2022-11-01T12:36:27.869Z,17.60
2022-11-01T12:39:06.917Z,18.18
2022-11-01T12:41:42.657Z,17.78
2022-11-01T12:44:24.709Z,18.11
2022-11-01T12:47:14.693Z,17.91
2022-11-01T12:49:51.124Z,17.92
2022-11-01T12:52:21.270Z,17.88
2022-11-01T12:55:00.782Z,17.90
2022-11-01T12:57:28.185Z,17.74
2022-11-01T12:59:54.767Z,17.61
2022-11-01T13:02:21.344Z,17.40
2022-11-01T13:05:01.308Z,17.91
2022-11-01T13:07:47.518Z,17.74
2022-11-01T13:10:34.141Z,17.67
2022-11-01T13:13:27.045Z,17.72
2022-11-01T13:16:07.879Z,17.62
2022-11-01T13:18:53.074Z,17.55
2022-11-01T13:21:40.909Z,17.54
2022-11-01T13:24:19.515Z,17.72
2022-11-01T13:26:54.783Z,17.44
2022-11-01T13:29:41.146Z,17.64
2022-11-01T13:32:46.021Z,17.60
2022-11-01T13:35:42.991Z,17.70
2022-11-01T13:38:17.586Z,17.90
2022-11-01T13:41:05.364Z,17.57
2022-11-01T13:43:43.084Z,17.58
2022-11-01T13:46:24.906Z,17.67
2022-11-01T13:49:09.549Z,17.70
2022-11-01T13:52:03.173Z,17.61
2022-11-01T13:54:36.926Z,17.27
2022-11-01T13:57:06.604Z,17.23
2022-11-01T13:59:54.046Z,17.30
2022-11-01T14:02:24.068Z,17.53
2022-11-01T14:04:57.726Z,17.38
2022-11-01T14:07:25.723Z,17.44
2022-11-01T14:09:56.084Z,17.45
2022-11-01T14:12:54.888Z,17.69
2022-11-01T14:15:22.949Z,17.08
2022-11-01T14:17:52.766Z,17.06
2022-11-01T14:20:19.407Z,17.02
2022-11-01T14:22:46.505Z,17.04
2022-11-01T14:25:13.513Z,17.37
2022-11-01T14:27:48.817Z,17.03
2022-11-01T14:30:21.519Z,17.11
2022-11-01T14:32:53.906Z,17.31
2022-11-01T14:35:30.606Z,17.00
2022-11-01T14:38:20.267Z,17.07
2022-11-01T14:40:52.230Z,16.78
2022-11-01T14:43:45.651Z,16.65
2022-11-01T14:46:15.909Z,16.53
2022-11-01T14:48:55.551Z,16.57
2022-11-01T14:51:46.580Z,16.70
2022-11-01T14:54:21.071Z,16.36
2022-11-01T14:56:55.827Z,16.10
2022-11-01T14:59:25.032Z,15.97
2022-11-01T15:02:01.155Z,16.24
2022-11-01T15:04:39.867Z,16.27
2022-11-01T15:07:40.528Z,16.05
2022-11-01T15:10:13.487Z,15.90
2022-11-01T15:12:53.364Z,15.79
2022-11-01T15:15:36.367Z,15.66
2022-11-01T15:18:07.489Z,15.56
2022-11-01T15:20:40.470Z,15.50
2022-11-01T15:23:10.824Z,15.31
2022-11-01T15:25:37.644Z,15.33
2022-11-01T15:28:05.295Z,15.27
2022-11-01T15:30:34.157Z,15.23
2022-11-01T15:33:25.958Z,15.02
2022-11-01T15:35:54.777Z,14.88
2022-11-01T15:38:22.127Z,14.75
2022-11-01T15:40:54.177Z,14.60
2022-11-01T15:43:23.100Z,14.59
2022-11-01T15:46:01.446Z,14.59
2022-11-01T15:48:33.608Z,14.48
2022-11-01T15:51:03.227Z,14.33
2022-11-01T15:53:33.693Z,14.19
2022-11-01T15:56:09.907Z,14.21
2022-11-01T15:58:41.646Z,14.14
2022-11-01T16:01:13.764Z,14.07
2022-11-01T16:03:45.821Z,14.07
2022-11-01T16:06:39.178Z,13.99
2022-11-01T16:09:15.509Z,13.95
2022-11-01T16:11:42.154Z,14.05
2022-11-01T16:14:33.558Z,13.79
2022-11-01T16:17:06.832Z,13.70
2022-11-01T16:19:48.287Z,13.52
2022-11-01T16:22:26.912Z,13.55
2022-11-01T16:25:11.668Z,13.46
2022-11-01T16:27:57.278Z,13.49
2022-11-01T16:30:54.799Z,13.45
2022-11-01T16:33:24.110Z,13.44
2022-11-01T16:35:59.067Z,13.36
2022-11-01T16:38:38.393Z,13.29
2022-11-01T16:41:23.199Z,13.30
2022-11-01T16:43:55.408Z,13.26
2022-11-01T16:46:24.325Z,13.21
2022-11-01T16:48:53.376Z,13.11
2022-11-01T16:51:21.390Z,13.06
2022-11-01T16:53:47.956Z,13.00
2022-11-01T16:56:35.724Z,13.03
2022-11-01T16:59:07.565Z,13.00
2022-11-01T17:01:36.532Z,13.01
2022-11-01T17:04:04.437Z,12.92
2022-11-01T17:06:34.760Z,12.99
2022-11-01T17:09:11.869Z,12.93
2022-11-01T17:11:38.558Z,12.92
2022-11-01T17:14:05.065Z,12.83
2022-11-01T17:16:31.936Z,12.76
2022-11-01T17:19:00.754Z,12.71
2022-11-01T17:21:30.906Z,12.49
2022-11-01T17:23:57.778Z,12.55
2022-11-01T17:26:24.434Z,12.48
2022-11-01T17:28:52.467Z,12.41
2022-11-01T17:31:19.268Z,12.37
2022-11-01T17:33:46.476Z,12.50
2022-11-01T17:36:15.417Z,12.41
2022-11-01T17:38:43.024Z,12.41
2022-11-01T17:41:12.663Z,12.49
2022-11-01T17:43:39.515Z,12.28
2022-11-01T17:46:13.873Z,12.19
2022-11-01T17:48:40.463Z,12.24
2022-11-01T17:51:07.035Z,12.26
2022-11-01T17:53:34.786Z,12.38
2022-11-01T17:56:01.352Z,12.33
2022-11-01T17:58:27.991Z,12.27
2022-11-01T18:00:54.573Z,12.33
2022-11-01T18:03:21.259Z,12.30
2022-11-01T18:05:47.837Z,12.25
2022-11-01T18:08:20.600Z,12.31
2022-11-01T18:11:13.504Z,12.34
2022-11-01T18:14:06.227Z,12.22
2022-11-01T18:16:50.797Z,12.06
2022-11-01T18:19:45.289Z,12.07
2022-11-01T18:22:34.141Z,12.06
2022-11-01T18:25:29.571Z,12.04
2022-11-01T18:28:00.660Z,11.97
2022-11-01T18:30:27.673Z,11.83
2022-11-01T18:33:04.945Z,11.83
2022-11-01T18:35:36.010Z,11.74
2022-11-01T18:38:18.732Z,11.80
2022-11-01T18:40:55.617Z,11.75
2022-11-01T18:43:22.334Z,11.58
2022-11-01T18:46:11.542Z,11.49
2022-11-01T18:48:37.577Z,11.52
2022-11-01T18:51:14.812Z,11.43
2022-11-01T18:53:41.367Z,11.56
2022-11-01T18:56:21.463Z,11.45
2022-11-01T18:58:52.689Z,11.31
2022-11-01T19:01:32.090Z,11.36
2022-11-01T19:04:04.859Z,11.16
2022-11-01T19:06:32.653Z,11.28
2022-11-01T19:09:09.625Z,11.25
2022-11-01T19:11:36.308Z,11.34
2022-11-01T19:14:03.192Z,11.14
2022-11-01T19:16:29.791Z,11.16
2022-11-01T19:18:56.404Z,11.26
2022-11-01T19:21:25.200Z,11.30
2022-11-01T19:23:54.292Z,11.09
2022-11-01T19:26:26.039Z,11.10
2022-11-01T19:28:52.860Z,11.05
2022-11-01T19:31:30.974Z,11.00
2022-11-01T19:34:02.378Z,10.96
2022-11-01T19:39:22.210Z,10.86
2022-11-01T19:41:49.273Z,10.99
2022-11-01T19:44:22.044Z,11.00
2022-11-01T19:46:49.056Z,10.99
2022-11-01T19:49:24.481Z,10.92
2022-11-01T19:52:23.147Z,10.80
2022-11-01T19:54:51.935Z,10.81
2022-11-01T19:57:32.538Z,10.68
2022-11-01T20:00:11.487Z,10.55
2022-11-01T20:02:38.641Z,10.50
2022-11-01T20:05:27.565Z,10.53
2022-11-01T20:08:21.925Z,10.48
2022-11-01T20:10:49.387Z,10.51
2022-11-01T20:13:16.914Z,10.52
2022-11-01T20:15:44.585Z,10.51
2022-11-01T20:18:12.194Z,10.45
2022-11-01T20:20:44.253Z,10.49
2022-11-01T20:23:25.819Z,10.46
2022-11-01T20:25:54.335Z,10.39
2022-11-01T20:28:21.904Z,10.51
2022-11-01T20:30:49.559Z,10.46
2022-11-01T20:33:17.293Z,10.44
2022-11-01T20:35:44.759Z,10.45
2022-11-01T20:38:12.485Z,10.39
2022-11-01T20:40:39.676Z,10.46
2022-11-01T20:43:07.320Z,10.35
2022-11-01T20:45:35.197Z,10.33
2022-11-01T20:48:02.925Z,10.27
2022-11-01T20:50:30.194Z,10.27
2022-11-01T20:52:56.829Z,10.24
2022-11-01T20:55:23.820Z,10.14
2022-11-01T20:57:51.467Z,10.08
2022-11-01T21:00:21.010Z,10.11
2022-11-01T21:02:48.451Z,10.05
2022-11-01T21:05:26.684Z,9.92
2022-11-01T21:07:58.325Z,10.05
2022-11-01T21:10:27.302Z,9.87
2022-11-01T21:12:54.000Z,9.82
2022-11-01T21:15:38.355Z,9.89
2022-11-01T21:18:07.950Z,10.04
2022-11-01T21:20:48.463Z,10.12
2022-11-01T21:23:20.758Z,10.08
2022-11-01T21:25:52.324Z,10.03
2022-11-01T21:28:42.509Z,10.15
2022-11-01T21:31:15.073Z,10.03
2022-11-01T21:33:53.494Z,10.03
2022-11-01T21:36:20.032Z,9.99
2022-11-01T21:39:14.219Z,9.87
2022-11-01T21:41:46.357Z,9.99
2022-11-01T21:44:21.002Z,9.96
2022-11-01T21:46:58.175Z,9.76
2022-11-01T21:49:26.247Z,10.13
2022-11-01T21:51:54.782Z,10.05
2022-11-01T21:54:21.825Z,10.12
2022-11-01T21:56:48.668Z,10.10
2022-11-01T21:59:15.432Z,10.02
2022-11-01T22:01:45.992Z,10.01
2022-11-01T22:04:13.972Z,10.13
2022-11-01T22:06:41.295Z,9.92
2022-11-01T22:09:09.085Z,10.07
2022-11-01T22:11:36.397Z,10.12
2022-11-01T22:14:03.834Z,10.01
2022-11-01T22:16:30.608Z,10.11
2022-11-01T22:18:57.170Z,10.08
2022-11-01T22:21:23.913Z,10.35
2022-11-01T22:23:50.467Z,10.27
2022-11-01T22:26:17.159Z,10.25
2022-11-01T22:28:43.913Z,10.15
2022-11-01T22:31:10.549Z,10.00
2022-11-01T22:33:37.129Z,9.94
2022-11-01T22:36:04.862Z,9.84
2022-11-01T22:38:43.016Z,9.88
2022-11-01T22:41:27.127Z,9.76
2022-11-01T22:43:59.382Z,9.83
2022-11-01T22:46:32.661Z,9.84
2022-11-01T22:49:18.291Z,9.68
2022-11-01T22:51:47.778Z,9.57
2022-11-01T22:54:30.397Z,9.61
2022-11-01T22:57:01.632Z,9.48
2022-11-01T22:59:33.216Z,9.37
2022-11-01T23:02:24.901Z,9.44
2022-11-01T23:05:07.139Z,9.35
2022-11-01T23:07:34.682Z,9.31
2022-11-01T23:10:07.829Z,9.31
2022-11-01T23:12:55.147Z,9.34
2022-11-01T23:15:28.848Z,9.48
2022-11-01T23:18:27.459Z,9.40
2022-11-01T23:21:01.996Z,9.44
2022-11-01T23:23:28.914Z,9.64
2022-11-01T23:25:57.121Z,9.66
2022-11-01T23:28:24.545Z,9.59
2022-11-01T23:30:51.805Z,9.65
2022-11-01T23:33:20.643Z,9.48
2022-11-01T23:35:58.281Z,9.55
2022-11-01T23:38:55.514Z,9.64
2022-11-01T23:41:34.785Z,9.72
2022-11-01T23:44:21.127Z,9.53
2022-11-01T23:46:47.938Z,9.96
2022-11-01T23:49:23.747Z,9.88
2022-11-01T23:51:51.040Z,9.60
2022-11-01T23:54:26.513Z,9.85
2022-11-01T23:56:55.118Z,9.78
2022-11-01T23:59:21.682Z,9.77
